Forside
METAR-TAF:

METAR-TAF

Lufthavne :

Rush City Regional Airport

Rush City, Minnesota, USA

Breddekreds: 45-41-53N, længdekreds: 092-57-11W, højde: 281 m

Aktuelle vejr

Denne rapport blev lavet for 15 minutter siden, kl. 11:35 UTC
Vind 6 kt fra sydøst
Temperatur 0°C
Fugtighed 74%
Tryk 1017 hPa
Sigt: 16.1 km
Brudte skyer i en højde af 2000 ft
Overskyet i en højde af 2700 ft

METAR: KROS 241135Z AUTO 13006KT 10SM BKN020 OVC027 00/M04 A3003 RMK AO2 T00001039

Tid: 05:50 (11:50 UTC)


TAF: fraværende

Vejrobservationer og prognoser fra mere end 4000 lufthavne (METAR og TAF).

De gule og røde prikker repræsenterer de meteorologiske stationer.

Flyt musen over at se navnet på stationen.

Så klik over at se vejr observationer og prognoser.

At skifte det kort: Klik på de grønne knapper med et sort kors for at zoome ind; på den grønne knap med en bindestreg for at zoome ud; eller på de grønne pile for tilstødende kort.


METAR-TAF: